Архив погоды в Ловозере

Метеограмма Ловозеро
Среда, 26 Июня
Время местн. Темп Ветер Видим Явления Облачность нижн/средн/верх Атм. давл. Влжн Точка росы ВНГО R Сост. почвы Tg s
Напр Скр Прв ур.ст ур.м изм
15:00 +16.8° Ю-З 4 7 20 км - облачно 746 760 -1.3 42% +3.7° 600 м - - - -
12:00 +16° З 3 6 20 км - преимущественно облачно 747 761 -0.8 43% +3.3° 600 м - - - -
09:00 +15.3° З 4 6 20 км - преимущественно облачно 748 762 -1.2 47% +4.1° 1.5 км 0 Сухая (без трещин) - -
06:00 +10.8° штиль 0 1 20 км - преимущественно облачно 749 764 -1.1 83% +8° 1.5 км - - - -
03:00 +6.3° С 1 1 4 км дымка облачно с прояснениями 750 765 -0.6 98% +6° 1.5 км - - - -
00:00 +5.8° Ю,Ю-В 1 2 20 км - переменная облачность 751 766 -0.2 98% +5.5° 1.5 км - - - -
Вторник, 25 Июня
Время местн. Темп Ветер Видим Явления Облачность нижн/средн/верх Атм. давл. Влжн Точка росы ВНГО R Сост. почвы Tg s
Напр Скр Прв ур.ст ур.м изм
21:00 +12.5° штиль 0 1 20 км - облачно с прояснениями 751 765 -0.2 67% +6.6° 1.5 км 0 - - -
18:00 +14° С 4 6 20 км - облачно с прояснениями 751 766 +0.3 60% +6.4° 1 км - - - -
15:00 +16.1° С-З 3 5 20 км - облачно с прояснениями 751 765 +0.1 51% +6° 1 км - - - -
12:00 +15.5° З 4 7 20 км - облачно с прояснениями 751 765 -1 50% +5° 1 км - - - -
09:00 +12.5° Ю 2 4 20 км - облачно с прояснениями 752 766 -0.8 57% +4.1° 1 км 0 Влажная (без луж) - -
06:00 +11.3° В,Ю-В 2 3 20 км - переменная облачность 753 767 -0.6 61% +4.1° 1.5 км - - - -
03:00 +7° штиль 0 - 20 км - облачно с прояснениями 753 768 0 86% +4.9° 1.5 км - - - -
00:00 +5.7° З 1 1 20 км - облачно с прояснениями 753 768 +0.6 90% +4.2° 1.5 км - - - -
Понедельник, 24 Июня
Время местн. Темп Ветер Видим Явления Облачность нижн/средн/верх Атм. давл. Влжн Точка росы ВНГО R Сост. почвы Tg s
Напр Скр Прв ур.ст ур.м изм
21:00 +11.9° С,С-В 2 3 20 км - переменная облачность 753 767 +0.6 49% +1.5° 1.5 км 0 - - -
18:00 +15.1° С 3 6 50 км - переменная облачность 752 766 +0.2 44% +3° 1.5 км - - - -
15:00 +12.5° С-З 3 6 50 км - переменная облачность 752 766 +0.2 50% +2.4° 1.5 км - - - -
12:00 +11° С-З 2 4 20 км - переменная облачность 752 766 +0.4 57% +2.8° 1.5 км - - - -
09:00 +5.6° С,С-З 3 6 20 км - облачно 751 766 +0.8 75% +1.5° 1 км 0 Влажная (без луж) - -
06:00 +4° С 2 4 20 км - облачно 750 766 +0.8 83% +1.4° 600 м - - - -
03:00 +3.2° З,С-З 1 2 20 км - облачно 750 765 +0.8 97% +2.8° 600 м - - - -
00:00 +3.5° С,С-З 2 3 20 км - облачно 749 764 +1.1 84% +1.1° 600 м - - - -
Воскресенье, 23 Июня
Время местн. Темп Ветер Видим Явления Облачность нижн/средн/верх Атм. давл. Влжн Точка росы ВНГО R Сост. почвы Tg s
Напр Скр Прв ур.ст ур.м изм
21:00 +3.8° С 3 5 20 км - облачно 748 763 +1.4 85% +1.5° 600 м 0.6 - - -
18:00 +4.9° С 4 6 20 км - облачно 747 761 +1.4 83% +2.2° 600 м - - - -
15:00 +4.5° С 3 5 20 км небо без изменений {ливневые осадки} облачно 745 760 +2 94% +3.6° 600 м - - - -
12:00 +4.8° С-В 3 7 10 км слабый ливневый дождь облачно 743 758 +2.3 97% +4.3° 600 м - - - -